sensor_id;sensor_type;location;lat;lon;timestamp;P1;durP1;ratioP1;P2;durP2;ratioP2
76631;SDS011;65526;48.578;-4.520;2024-01-10T00:02:13;17.02;;;9.30;;
76631;SDS011;65526;48.578;-4.520;2024-01-10T00:04:39;19.02;;;9.80;;
76631;SDS011;65526;48.578;-4.520;2024-01-10T00:07:06;20.25;;;9.68;;
76631;SDS011;65526;48.578;-4.520;2024-01-10T00:09:32;19.80;;;9.40;;
76631;SDS011;65526;48.578;-4.520;2024-01-10T00:11:59;19.27;;;9.80;;
76631;SDS011;65526;48.578;-4.520;2024-01-10T00:14:25;21.48;;;11.02;;
76631;SDS011;65526;48.578;-4.520;2024-01-10T00:16:52;22.67;;;10.05;;
76631;SDS011;65526;48.578;-4.520;2024-01-10T00:19:18;21.20;;;10.05;;
76631;SDS011;65526;48.578;-4.520;2024-01-10T00:21:45;19.60;;;10.13;;
76631;SDS011;65526;48.578;-4.520;2024-01-10T00:24:11;19.98;;;9.68;;
76631;SDS011;65526;48.578;-4.520;2024-01-10T00:26:37;18.48;;;9.68;;
76631;SDS011;65526;48.578;-4.520;2024-01-10T00:29:04;21.27;;;10.55;;
76631;SDS011;65526;48.578;-4.520;2024-01-10T00:31:30;20.77;;;10.48;;
76631;SDS011;65526;48.578;-4.520;2024-01-10T00:33:57;20.23;;;9.63;;
76631;SDS011;65526;48.578;-4.520;2024-01-10T00:36:23;20.08;;;10.60;;
76631;SDS011;65526;48.578;-4.520;2024-01-10T00:38:50;18.58;;;9.65;;
76631;SDS011;65526;48.578;-4.520;2024-01-10T00:41:16;22.67;;;11.07;;
76631;SDS011;65526;48.578;-4.520;2024-01-10T00:43:42;23.75;;;10.95;;
76631;SDS011;65526;48.578;-4.520;2024-01-10T00:46:09;20.75;;;10.02;;
76631;SDS011;65526;48.578;-4.520;2024-01-10T00:48:35;20.38;;;10.25;;
76631;SDS011;65526;48.578;-4.520;2024-01-10T00:51:02;21.15;;;9.07;;
76631;SDS011;65526;48.578;-4.520;2024-01-10T00:53:34;20.55;;;9.82;;
76631;SDS011;65526;48.578;-4.520;2024-01-10T00:56:01;23.45;;;10.55;;
76631;SDS011;65526;48.578;-4.520;2024-01-10T00:58:27;20.42;;;8.63;;
76631;SDS011;65526;48.578;-4.520;2024-01-10T01:00:53;20.90;;;10.70;;
76631;SDS011;65526;48.578;-4.520;2024-01-10T01:03:20;19.40;;;9.88;;
76631;SDS011;65526;48.578;-4.520;2024-01-10T01:05:46;19.08;;;10.20;;
76631;SDS011;65526;48.578;-4.520;2024-01-10T01:08:13;19.00;;;9.88;;
76631;SDS011;65526;48.578;-4.520;2024-01-10T01:10:39;19.70;;;10.98;;
76631;SDS011;65526;48.578;-4.520;2024-01-10T01:13:05;21.95;;;10.63;;
76631;SDS011;65526;48.578;-4.520;2024-01-10T01:15:32;20.45;;;10.20;;
76631;SDS011;65526;48.578;-4.520;2024-01-10T01:17:58;20.85;;;10.40;;
76631;SDS011;65526;48.578;-4.520;2024-01-10T01:20:24;19.20;;;10.13;;
76631;SDS011;65526;48.578;-4.520;2024-01-10T01:22:51;21.52;;;9.80;;
76631;SDS011;65526;48.578;-4.520;2024-01-10T01:25:18;21.05;;;9.40;;
76631;SDS011;65526;48.578;-4.520;2024-01-10T01:27:45;19.02;;;10.32;;
76631;SDS011;65526;48.578;-4.520;2024-01-10T01:30:11;19.27;;;9.60;;
76631;SDS011;65526;48.578;-4.520;2024-01-10T01:32:38;19.98;;;10.70;;
76631;SDS011;65526;48.578;-4.520;2024-01-10T01:35:04;21.92;;;10.50;;
76631;SDS011;65526;48.578;-4.520;2024-01-10T01:37:31;20.25;;;9.65;;
76631;SDS011;65526;48.578;-4.520;2024-01-10T01:39:57;19.52;;;10.40;;
76631;SDS011;65526;48.578;-4.520;2024-01-10T01:42:24;22.23;;;10.52;;
76631;SDS011;65526;48.578;-4.520;2024-01-10T01:44:50;23.88;;;9.57;;
76631;SDS011;65526;48.578;-4.520;2024-01-10T01:47:17;17.38;;;9.57;;
76631;SDS011;65526;48.578;-4.520;2024-01-10T01:49:43;23.90;;;10.52;;
76631;SDS011;65526;48.578;-4.520;2024-01-10T01:52:10;18.20;;;10.38;;
76631;SDS011;65526;48.578;-4.520;2024-01-10T01:54:36;18.65;;;9.23;;
76631;SDS011;65526;48.578;-4.520;2024-01-10T01:57:03;20.23;;;10.50;;
76631;SDS011;65526;48.578;-4.520;2024-01-10T01:59:30;20.17;;;10.52;;
76631;SDS011;65526;48.578;-4.520;2024-01-10T02:01:57;18.77;;;9.55;;
76631;SDS011;65526;48.578;-4.520;2024-01-10T02:04:27;17.88;;;9.60;;
76631;SDS011;65526;48.578;-4.520;2024-01-10T02:06:56;18.40;;;9.55;;
76631;SDS011;65526;48.578;-4.520;2024-01-10T02:09:22;17.85;;;10.32;;
76631;SDS011;65526;48.578;-4.520;2024-01-10T02:11:49;17.70;;;9.15;;
76631;SDS011;65526;48.578;-4.520;2024-01-10T02:14:15;17.45;;;9.90;;
76631;SDS011;65526;48.578;-4.520;2024-01-10T02:16:42;17.50;;;9.32;;
76631;SDS011;65526;48.578;-4.520;2024-01-10T02:19:21;19.83;;;9.77;;
76631;SDS011;65526;48.578;-4.520;2024-01-10T02:21:48;19.45;;;10.20;;
76631;SDS011;65526;48.578;-4.520;2024-01-10T02:24:15;21.05;;;10.20;;
76631;SDS011;65526;48.578;-4.520;2024-01-10T02:26:41;21.17;;;9.68;;
76631;SDS011;65526;48.578;-4.520;2024-01-10T02:29:08;17.70;;;9.93;;
76631;SDS011;65526;48.578;-4.520;2024-01-10T02:31:34;21.38;;;10.93;;
76631;SDS011;65526;48.578;-4.520;2024-01-10T02:34:01;19.52;;;9.80;;
76631;SDS011;65526;48.578;-4.520;2024-01-10T02:36:27;18.45;;;10.10;;
76631;SDS011;65526;48.578;-4.520;2024-01-10T02:38:53;22.27;;;9.98;;
76631;SDS011;65526;48.578;-4.520;2024-01-10T02:41:20;18.92;;;9.82;;
76631;SDS011;65526;48.578;-4.520;2024-01-10T02:43:46;16.60;;;8.95;;
76631;SDS011;65526;48.578;-4.520;2024-01-10T02:46:13;17.67;;;9.90;;
76631;SDS011;65526;48.578;-4.520;2024-01-10T02:48:39;18.98;;;9.82;;
76631;SDS011;65526;48.578;-4.520;2024-01-10T02:51:05;20.00;;;10.18;;
76631;SDS011;65526;48.578;-4.520;2024-01-10T02:53:32;18.17;;;9.75;;
76631;SDS011;65526;48.578;-4.520;2024-01-10T02:55:58;23.60;;;10.98;;
76631;SDS011;65526;48.578;-4.520;2024-01-10T02:58:24;22.92;;;10.65;;
76631;SDS011;65526;48.578;-4.520;2024-01-10T03:00:51;21.17;;;9.73;;
76631;SDS011;65526;48.578;-4.520;2024-01-10T03:03:17;22.83;;;10.38;;
76631;SDS011;65526;48.578;-4.520;2024-01-10T03:05:44;19.60;;;10.13;;
76631;SDS011;65526;48.578;-4.520;2024-01-10T03:08:10;18.92;;;9.85;;
76631;SDS011;65526;48.578;-4.520;2024-01-10T03:10:37;20.27;;;9.32;;
76631;SDS011;65526;48.578;-4.520;2024-01-10T03:13:03;21.88;;;10.40;;
76631;SDS011;65526;48.578;-4.520;2024-01-10T03:15:30;19.15;;;9.20;;
76631;SDS011;65526;48.578;-4.520;2024-01-10T03:17:57;18.92;;;10.18;;
76631;SDS011;65526;48.578;-4.520;2024-01-10T03:20:23;19.13;;;9.32;;
76631;SDS011;65526;48.578;-4.520;2024-01-10T03:22:50;19.73;;;9.90;;
76631;SDS011;65526;48.578;-4.520;2024-01-10T03:25:16;21.30;;;10.10;;
76631;SDS011;65526;48.578;-4.520;2024-01-10T03:27:42;20.48;;;10.15;;
76631;SDS011;65526;48.578;-4.520;2024-01-10T03:30:09;21.75;;;10.52;;
76631;SDS011;65526;48.578;-4.520;2024-01-10T03:32:36;20.27;;;10.40;;
76631;SDS011;65526;48.578;-4.520;2024-01-10T03:35:02;22.25;;;10.90;;
76631;SDS011;65526;48.578;-4.520;2024-01-10T03:37:29;19.98;;;9.60;;
76631;SDS011;65526;48.578;-4.520;2024-01-10T03:39:56;20.17;;;9.80;;
76631;SDS011;65526;48.578;-4.520;2024-01-10T03:42:22;21.05;;;10.20;;
76631;SDS011;65526;48.578;-4.520;2024-01-10T03:44:48;19.75;;;10.38;;
76631;SDS011;65526;48.578;-4.520;2024-01-10T03:47:15;23.58;;;10.43;;
76631;SDS011;65526;48.578;-4.520;2024-01-10T03:49:41;21.23;;;10.15;;
76631;SDS011;65526;48.578;-4.520;2024-01-10T03:52:07;20.55;;;9.27;;
76631;SDS011;65526;48.578;-4.520;2024-01-10T03:54:34;21.75;;;10.18;;
76631;SDS011;65526;48.578;-4.520;2024-01-10T03:57:00;16.38;;;9.20;;
76631;SDS011;65526;48.578;-4.520;2024-01-10T03:59:27;20.48;;;9.65;;
76631;SDS011;65526;48.578;-4.520;2024-01-10T04:01:53;22.10;;;10.05;;
76631;SDS011;65526;48.578;-4.520;2024-01-10T04:07:29;19.02;;;9.02;;
76631;SDS011;65526;48.578;-4.520;2024-01-10T04:09:56;18.88;;;8.95;;
76631;SDS011;65526;48.578;-4.520;2024-01-10T04:12:22;18.60;;;9.82;;
76631;SDS011;65526;48.578;-4.520;2024-01-10T04:14:49;19.42;;;9.20;;
76631;SDS011;65526;48.578;-4.520;2024-01-10T04:17:15;17.35;;;8.60;;
76631;SDS011;65526;48.578;-4.520;2024-01-10T04:19:41;19.48;;;9.05;;
76631;SDS011;65526;48.578;-4.520;2024-01-10T04:22:08;22.30;;;10.18;;
76631;SDS011;65526;48.578;-4.520;2024-01-10T04:24:34;24.05;;;10.20;;
76631;SDS011;65526;48.578;-4.520;2024-01-10T04:27:00;22.15;;;9.60;;
76631;SDS011;65526;48.578;-4.520;2024-01-10T04:29:27;20.58;;;10.02;;
76631;SDS011;65526;48.578;-4.520;2024-01-10T04:31:53;20.92;;;9.50;;
76631;SDS011;65526;48.578;-4.520;2024-01-10T04:34:19;18.65;;;10.10;;
76631;SDS011;65526;48.578;-4.520;2024-01-10T04:36:46;20.90;;;10.02;;
76631;SDS011;65526;48.578;-4.520;2024-01-10T04:39:12;20.20;;;9.68;;
76631;SDS011;65526;48.578;-4.520;2024-01-10T04:41:38;19.95;;;8.82;;
76631;SDS011;65526;48.578;-4.520;2024-01-10T04:44:05;17.85;;;9.07;;
76631;SDS011;65526;48.578;-4.520;2024-01-10T04:46:32;20.30;;;9.10;;
76631;SDS011;65526;48.578;-4.520;2024-01-10T04:48:59;19.75;;;9.48;;
76631;SDS011;65526;48.578;-4.520;2024-01-10T04:51:26;23.88;;;9.95;;
76631;SDS011;65526;48.578;-4.520;2024-01-10T04:53:52;19.80;;;10.20;;
76631;SDS011;65526;48.578;-4.520;2024-01-10T04:56:18;19.52;;;9.10;;
76631;SDS011;65526;48.578;-4.520;2024-01-10T04:58:45;21.05;;;10.40;;
76631;SDS011;65526;48.578;-4.520;2024-01-10T05:01:12;21.08;;;9.38;;
76631;SDS011;65526;48.578;-4.520;2024-01-10T05:03:38;18.55;;;10.13;;
76631;SDS011;65526;48.578;-4.520;2024-01-10T05:06:05;20.98;;;10.50;;
76631;SDS011;65526;48.578;-4.520;2024-01-10T05:08:31;20.98;;;9.55;;
76631;SDS011;65526;48.578;-4.520;2024-01-10T05:10:57;23.83;;;10.57;;
76631;SDS011;65526;48.578;-4.520;2024-01-10T05:13:24;18.83;;;9.55;;
76631;SDS011;65526;48.578;-4.520;2024-01-10T05:15:50;18.65;;;9.98;;
76631;SDS011;65526;48.578;-4.520;2024-01-10T05:18:16;16.73;;;9.27;;
76631;SDS011;65526;48.578;-4.520;2024-01-10T05:20:44;20.27;;;9.75;;
76631;SDS011;65526;48.578;-4.520;2024-01-10T05:23:11;19.90;;;10.50;;
76631;SDS011;65526;48.578;-4.520;2024-01-10T05:25:37;19.60;;;9.52;;
76631;SDS011;65526;48.578;-4.520;2024-01-10T05:28:03;19.25;;;9.63;;
76631;SDS011;65526;48.578;-4.520;2024-01-10T05:30:30;18.05;;;9.43;;
76631;SDS011;65526;48.578;-4.520;2024-01-10T05:32:57;20.80;;;9.80;;
76631;SDS011;65526;48.578;-4.520;2024-01-10T05:35:27;18.95;;;9.80;;
76631;SDS011;65526;48.578;-4.520;2024-01-10T05:37:54;20.80;;;9.43;;
76631;SDS011;65526;48.578;-4.520;2024-01-10T05:40:20;23.08;;;9.50;;
76631;SDS011;65526;48.578;-4.520;2024-01-10T05:42:47;24.77;;;10.57;;
76631;SDS011;65526;48.578;-4.520;2024-01-10T05:45:13;21.20;;;9.32;;
76631;SDS011;65526;48.578;-4.520;2024-01-10T05:47:39;19.13;;;8.82;;
76631;SDS011;65526;48.578;-4.520;2024-01-10T05:50:06;21.67;;;9.70;;
76631;SDS011;65526;48.578;-4.520;2024-01-10T05:52:33;20.40;;;9.82;;
76631;SDS011;65526;48.578;-4.520;2024-01-10T05:54:59;19.60;;;10.05;;
76631;SDS011;65526;48.578;-4.520;2024-01-10T05:57:28;22.25;;;10.40;;
76631;SDS011;65526;48.578;-4.520;2024-01-10T05:59:56;20.13;;;9.07;;
76631;SDS011;65526;48.578;-4.520;2024-01-10T06:02:23;21.15;;;9.85;;
76631;SDS011;65526;48.578;-4.520;2024-01-10T06:04:50;23.30;;;9.43;;
76631;SDS011;65526;48.578;-4.520;2024-01-10T06:07:16;20.13;;;9.63;;
76631;SDS011;65526;48.578;-4.520;2024-01-10T06:09:43;23.50;;;10.93;;
76631;SDS011;65526;48.578;-4.520;2024-01-10T06:12:12;22.08;;;10.20;;
76631;SDS011;65526;48.578;-4.520;2024-01-10T06:14:38;22.15;;;9.85;;
76631;SDS011;65526;48.578;-4.520;2024-01-10T06:17:05;26.08;;;10.35;;
76631;SDS011;65526;48.578;-4.520;2024-01-10T06:19:31;20.42;;;10.00;;
76631;SDS011;65526;48.578;-4.520;2024-01-10T06:21:58;22.35;;;10.40;;
76631;SDS011;65526;48.578;-4.520;2024-01-10T06:24:25;20.13;;;9.82;;
76631;SDS011;65526;48.578;-4.520;2024-01-10T06:26:52;19.27;;;9.57;;
76631;SDS011;65526;48.578;-4.520;2024-01-10T06:29:18;23.52;;;9.57;;
76631;SDS011;65526;48.578;-4.520;2024-01-10T06:31:45;22.30;;;10.43;;
76631;SDS011;65526;48.578;-4.520;2024-01-10T06:34:11;20.85;;;9.45;;
76631;SDS011;65526;48.578;-4.520;2024-01-10T06:36:37;23.10;;;9.27;;
76631;SDS011;65526;48.578;-4.520;2024-01-10T06:39:04;21.17;;;9.98;;
76631;SDS011;65526;48.578;-4.520;2024-01-10T06:41:30;21.63;;;10.32;;
76631;SDS011;65526;48.578;-4.520;2024-01-10T06:43:57;21.63;;;9.82;;
76631;SDS011;65526;48.578;-4.520;2024-01-10T06:46:24;23.02;;;10.38;;
76631;SDS011;65526;48.578;-4.520;2024-01-10T06:48:50;20.60;;;9.90;;
76631;SDS011;65526;48.578;-4.520;2024-01-10T06:51:16;21.35;;;9.25;;
76631;SDS011;65526;48.578;-4.520;2024-01-10T06:53:43;21.48;;;10.15;;
76631;SDS011;65526;48.578;-4.520;2024-01-10T06:56:09;24.67;;;10.75;;
76631;SDS011;65526;48.578;-4.520;2024-01-10T06:58:35;22.45;;;9.93;;
76631;SDS011;65526;48.578;-4.520;2024-01-10T07:01:02;25.52;;;10.57;;
76631;SDS011;65526;48.578;-4.520;2024-01-10T07:03:31;24.25;;;10.25;;
76631;SDS011;65526;48.578;-4.520;2024-01-10T07:05:58;21.10;;;11.00;;
76631;SDS011;65526;48.578;-4.520;2024-01-10T07:08:25;19.35;;;9.43;;
76631;SDS011;65526;48.578;-4.520;2024-01-10T07:10:52;24.17;;;10.55;;
76631;SDS011;65526;48.578;-4.520;2024-01-10T07:13:21;21.27;;;8.70;;
76631;SDS011;65526;48.578;-4.520;2024-01-10T07:15:48;20.00;;;10.57;;
76631;SDS011;65526;48.578;-4.520;2024-01-10T07:18:16;22.45;;;10.43;;
76631;SDS011;65526;48.578;-4.520;2024-01-10T07:20:43;24.67;;;9.73;;
76631;SDS011;65526;48.578;-4.520;2024-01-10T07:23:09;23.38;;;11.02;;
76631;SDS011;65526;48.578;-4.520;2024-01-10T07:25:36;24.13;;;10.80;;
76631;SDS011;65526;48.578;-4.520;2024-01-10T07:28:03;25.75;;;10.95;;
76631;SDS011;65526;48.578;-4.520;2024-01-10T07:30:30;20.73;;;10.20;;
76631;SDS011;65526;48.578;-4.520;2024-01-10T07:32:58;24.65;;;10.27;;
76631;SDS011;65526;48.578;-4.520;2024-01-10T07:35:25;24.95;;;9.98;;
76631;SDS011;65526;48.578;-4.520;2024-01-10T07:37:52;20.73;;;9.38;;
76631;SDS011;65526;48.578;-4.520;2024-01-10T07:40:19;24.83;;;10.68;;
76631;SDS011;65526;48.578;-4.520;2024-01-10T07:42:45;24.40;;;10.43;;
76631;SDS011;65526;48.578;-4.520;2024-01-10T07:45:11;24.05;;;11.13;;
76631;SDS011;65526;48.578;-4.520;2024-01-10T07:47:38;24.33;;;9.25;;
76631;SDS011;65526;48.578;-4.520;2024-01-10T07:50:08;22.42;;;10.48;;
76631;SDS011;65526;48.578;-4.520;2024-01-10T07:52:36;21.90;;;10.05;;
76631;SDS011;65526;48.578;-4.520;2024-01-10T07:55:02;22.05;;;10.45;;
76631;SDS011;65526;48.578;-4.520;2024-01-10T07:57:30;20.88;;;9.57;;
76631;SDS011;65526;48.578;-4.520;2024-01-10T07:59:58;22.92;;;9.73;;
76631;SDS011;65526;48.578;-4.520;2024-01-10T08:02:24;23.40;;;9.75;;
76631;SDS011;65526;48.578;-4.520;2024-01-10T08:04:51;21.83;;;10.13;;
76631;SDS011;65526;48.578;-4.520;2024-01-10T08:07:18;22.63;;;10.38;;
76631;SDS011;65526;48.578;-4.520;2024-01-10T08:09:45;22.95;;;9.60;;
76631;SDS011;65526;48.578;-4.520;2024-01-10T08:12:12;21.70;;;10.25;;
76631;SDS011;65526;48.578;-4.520;2024-01-10T08:14:39;19.23;;;9.32;;
76631;SDS011;65526;48.578;-4.520;2024-01-10T08:17:06;23.38;;;10.77;;
76631;SDS011;65526;48.578;-4.520;2024-01-10T08:19:32;19.85;;;9.20;;
76631;SDS011;65526;48.578;-4.520;2024-01-10T08:21:59;24.63;;;10.05;;
76631;SDS011;65526;48.578;-4.520;2024-01-10T08:24:25;22.02;;;9.93;;
76631;SDS011;65526;48.578;-4.520;2024-01-10T08:26:52;23.10;;;9.77;;
76631;SDS011;65526;48.578;-4.520;2024-01-10T08:29:18;20.40;;;8.85;;
76631;SDS011;65526;48.578;-4.520;2024-01-10T08:31:45;24.52;;;10.27;;
76631;SDS011;65526;48.578;-4.520;2024-01-10T08:34:11;22.10;;;10.43;;
76631;SDS011;65526;48.578;-4.520;2024-01-10T08:36:37;21.23;;;9.27;;
76631;SDS011;65526;48.578;-4.520;2024-01-10T08:39:04;20.27;;;10.45;;
76631;SDS011;65526;48.578;-4.520;2024-01-10T08:41:30;23.00;;;9.70;;
76631;SDS011;65526;48.578;-4.520;2024-01-10T08:43:57;20.45;;;9.52;;
76631;SDS011;65526;48.578;-4.520;2024-01-10T08:46:23;23.25;;;9.65;;
76631;SDS011;65526;48.578;-4.520;2024-01-10T08:48:50;21.33;;;9.88;;
76631;SDS011;65526;48.578;-4.520;2024-01-10T08:51:17;21.88;;;9.48;;
76631;SDS011;65526;48.578;-4.520;2024-01-10T08:53:43;24.50;;;10.70;;
76631;SDS011;65526;48.578;-4.520;2024-01-10T08:56:10;21.02;;;9.68;;
76631;SDS011;65526;48.578;-4.520;2024-01-10T08:58:36;24.30;;;9.55;;
76631;SDS011;65526;48.578;-4.520;2024-01-10T09:01:03;24.60;;;10.88;;
76631;SDS011;65526;48.578;-4.520;2024-01-10T09:03:34;23.15;;;9.40;;
76631;SDS011;65526;48.578;-4.520;2024-01-10T09:06:00;20.73;;;10.00;;
76631;SDS011;65526;48.578;-4.520;2024-01-10T09:08:26;21.85;;;10.32;;
76631;SDS011;65526;48.578;-4.520;2024-01-10T09:10:53;20.55;;;9.90;;
76631;SDS011;65526;48.578;-4.520;2024-01-10T09:13:20;24.10;;;10.27;;
76631;SDS011;65526;48.578;-4.520;2024-01-10T09:15:46;21.75;;;9.70;;
76631;SDS011;65526;48.578;-4.520;2024-01-10T09:18:13;22.50;;;9.65;;
76631;SDS011;65526;48.578;-4.520;2024-01-10T09:20:39;21.40;;;9.15;;
76631;SDS011;65526;48.578;-4.520;2024-01-10T09:23:06;23.17;;;9.57;;
76631;SDS011;65526;48.578;-4.520;2024-01-10T09:25:32;19.95;;;9.38;;
76631;SDS011;65526;48.578;-4.520;2024-01-10T09:27:59;20.92;;;9.68;;
76631;SDS011;65526;48.578;-4.520;2024-01-10T09:30:25;20.27;;;9.50;;
76631;SDS011;65526;48.578;-4.520;2024-01-10T09:32:52;21.02;;;9.23;;
76631;SDS011;65526;48.578;-4.520;2024-01-10T09:35:18;21.88;;;10.55;;
76631;SDS011;65526;48.578;-4.520;2024-01-10T09:37:44;20.85;;;9.02;;
76631;SDS011;65526;48.578;-4.520;2024-01-10T09:40:11;21.30;;;9.30;;
76631;SDS011;65526;48.578;-4.520;2024-01-10T09:42:41;20.67;;;10.07;;
76631;SDS011;65526;48.578;-4.520;2024-01-10T09:45:07;19.95;;;8.85;;
76631;SDS011;65526;48.578;-4.520;2024-01-10T09:47:36;22.17;;;8.77;;
76631;SDS011;65526;48.578;-4.520;2024-01-10T09:50:05;21.55;;;9.82;;
76631;SDS011;65526;48.578;-4.520;2024-01-10T09:52:34;20.73;;;9.82;;
76631;SDS011;65526;48.578;-4.520;2024-01-10T09:55:07;23.13;;;9.48;;
76631;SDS011;65526;48.578;-4.520;2024-01-10T09:57:35;20.75;;;9.07;;
76631;SDS011;65526;48.578;-4.520;2024-01-10T10:00:02;20.40;;;9.88;;
76631;SDS011;65526;48.578;-4.520;2024-01-10T10:02:33;20.35;;;9.95;;
76631;SDS011;65526;48.578;-4.520;2024-01-10T10:05:08;19.58;;;8.95;;
76631;SDS011;65526;48.578;-4.520;2024-01-10T10:07:50;23.88;;;9.98;;
76631;SDS011;65526;48.578;-4.520;2024-01-10T10:10:19;18.77;;;8.88;;
76631;SDS011;65526;48.578;-4.520;2024-01-10T10:12:46;21.30;;;9.05;;
76631;SDS011;65526;48.578;-4.520;2024-01-10T10:17:45;19.73;;;8.80;;
76631;SDS011;65526;48.578;-4.520;2024-01-10T10:20:14;22.17;;;9.52;;
76631;SDS011;65526;48.578;-4.520;2024-01-10T10:22:59;20.92;;;9.05;;
76631;SDS011;65526;48.578;-4.520;2024-01-10T10:25:31;20.23;;;9.52;;
76631;SDS011;65526;48.578;-4.520;2024-01-10T10:28:02;18.60;;;8.50;;
76631;SDS011;65526;48.578;-4.520;2024-01-10T10:30:30;24.77;;;9.82;;
76631;SDS011;65526;48.578;-4.520;2024-01-10T10:32:57;20.67;;;9.48;;
76631;SDS011;65526;48.578;-4.520;2024-01-10T10:35:24;20.20;;;8.85;;
76631;SDS011;65526;48.578;-4.520;2024-01-10T10:37:53;20.13;;;8.98;;
76631;SDS011;65526;48.578;-4.520;2024-01-10T10:40:21;19.90;;;9.13;;
76631;SDS011;65526;48.578;-4.520;2024-01-10T10:42:48;20.38;;;9.32;;
76631;SDS011;65526;48.578;-4.520;2024-01-10T10:45:23;19.80;;;8.52;;
76631;SDS011;65526;48.578;-4.520;2024-01-10T10:47:56;20.85;;;9.27;;
76631;SDS011;65526;48.578;-4.520;2024-01-10T10:50:26;19.38;;;9.93;;
76631;SDS011;65526;48.578;-4.520;2024-01-10T10:52:55;19.58;;;9.25;;
76631;SDS011;65526;48.578;-4.520;2024-01-10T10:55:22;20.77;;;9.25;;
76631;SDS011;65526;48.578;-4.520;2024-01-10T10:57:49;18.63;;;8.93;;
76631;SDS011;65526;48.578;-4.520;2024-01-10T11:00:20;17.50;;;7.90;;
76631;SDS011;65526;48.578;-4.520;2024-01-10T11:02:55;19.58;;;8.75;;
76631;SDS011;65526;48.578;-4.520;2024-01-10T11:05:23;17.58;;;8.57;;
76631;SDS011;65526;48.578;-4.520;2024-01-10T11:07:51;20.80;;;9.20;;
76631;SDS011;65526;48.578;-4.520;2024-01-10T11:10:20;20.10;;;9.10;;
76631;SDS011;65526;48.578;-4.520;2024-01-10T11:15:55;19.90;;;9.70;;
76631;SDS011;65526;48.578;-4.520;2024-01-10T11:21:18;22.45;;;9.73;;
76631;SDS011;65526;48.578;-4.520;2024-01-10T11:23:57;21.63;;;10.25;;
76631;SDS011;65526;48.578;-4.520;2024-01-10T11:26:26;19.23;;;9.77;;
76631;SDS011;65526;48.578;-4.520;2024-01-10T11:28:53;19.85;;;9.63;;
76631;SDS011;65526;48.578;-4.520;2024-01-10T11:31:30;20.85;;;9.48;;
76631;SDS011;65526;48.578;-4.520;2024-01-10T11:33:58;19.88;;;9.98;;
76631;SDS011;65526;48.578;-4.520;2024-01-10T11:36:26;18.15;;;9.38;;
76631;SDS011;65526;48.578;-4.520;2024-01-10T11:44:36;21.08;;;9.70;;
76631;SDS011;65526;48.578;-4.520;2024-01-10T11:46:52;20.33;;;9.98;;
76631;SDS011;65526;48.578;-4.520;2024-01-10T11:49:32;21.00;;;10.02;;
76631;SDS011;65526;48.578;-4.520;2024-01-10T11:52:02;22.75;;;10.60;;
76631;SDS011;65526;48.578;-4.520;2024-01-10T11:57:25;17.45;;;8.57;;
76631;SDS011;65526;48.578;-4.520;2024-01-10T11:59:54;20.92;;;9.88;;
76631;SDS011;65526;48.578;-4.520;2024-01-10T12:02:42;23.83;;;10.70;;
76631;SDS011;65526;48.578;-4.520;2024-01-10T12:05:12;19.48;;;9.73;;
76631;SDS011;65526;48.578;-4.520;2024-01-10T12:07:40;19.80;;;9.50;;
76631;SDS011;65526;48.578;-4.520;2024-01-10T12:10:06;22.45;;;10.90;;
76631;SDS011;65526;48.578;-4.520;2024-01-10T12:15:08;17.95;;;8.95;;
76631;SDS011;65526;48.578;-4.520;2024-01-10T12:17:40;24.88;;;10.88;;
76631;SDS011;65526;48.578;-4.520;2024-01-10T12:20:11;19.67;;;9.82;;
76631;SDS011;65526;48.578;-4.520;2024-01-10T12:22:41;24.58;;;11.00;;
76631;SDS011;65526;48.578;-4.520;2024-01-10T12:25:09;26.33;;;10.85;;
76631;SDS011;65526;48.578;-4.520;2024-01-10T12:27:36;23.70;;;10.55;;
76631;SDS011;65526;48.578;-4.520;2024-01-10T12:30:02;22.33;;;10.38;;
76631;SDS011;65526;48.578;-4.520;2024-01-10T12:32:31;23.92;;;12.00;;
76631;SDS011;65526;48.578;-4.520;2024-01-10T12:35:03;25.33;;;11.75;;
76631;SDS011;65526;48.578;-4.520;2024-01-10T12:37:31;26.33;;;11.93;;
76631;SDS011;65526;48.578;-4.520;2024-01-10T12:39:58;25.33;;;11.90;;
76631;SDS011;65526;48.578;-4.520;2024-01-10T12:42:24;20.73;;;11.35;;
76631;SDS011;65526;48.578;-4.520;2024-01-10T12:44:51;20.42;;;10.80;;
76631;SDS011;65526;48.578;-4.520;2024-01-10T12:47:20;24.92;;;11.90;;
76631;SDS011;65526;48.578;-4.520;2024-01-10T12:49:48;23.52;;;11.82;;
76631;SDS011;65526;48.578;-4.520;2024-01-10T12:52:15;25.98;;;11.75;;
76631;SDS011;65526;48.578;-4.520;2024-01-10T12:54:41;23.65;;;11.25;;
76631;SDS011;65526;48.578;-4.520;2024-01-10T12:57:08;23.73;;;11.90;;
76631;SDS011;65526;48.578;-4.520;2024-01-10T12:59:34;25.95;;;11.40;;
76631;SDS011;65526;48.578;-4.520;2024-01-10T13:02:01;21.60;;;11.10;;
76631;SDS011;65526;48.578;-4.520;2024-01-10T13:04:27;22.92;;;11.25;;
76631;SDS011;65526;48.578;-4.520;2024-01-10T13:06:53;27.75;;;11.52;;
76631;SDS011;65526;48.578;-4.520;2024-01-10T13:09:20;23.50;;;11.68;;
76631;SDS011;65526;48.578;-4.520;2024-01-10T13:11:46;26.20;;;12.57;;
76631;SDS011;65526;48.578;-4.520;2024-01-10T13:14:13;23.08;;;12.13;;
76631;SDS011;65526;48.578;-4.520;2024-01-10T13:16:39;24.20;;;12.07;;
76631;SDS011;65526;48.578;-4.520;2024-01-10T13:19:06;25.45;;;12.48;;
76631;SDS011;65526;48.578;-4.520;2024-01-10T13:21:32;27.35;;;12.75;;
76631;SDS011;65526;48.578;-4.520;2024-01-10T13:23:58;24.38;;;11.55;;
76631;SDS011;65526;48.578;-4.520;2024-01-10T13:26:25;28.23;;;12.15;;
76631;SDS011;65526;48.578;-4.520;2024-01-10T13:28:52;22.20;;;11.68;;
76631;SDS011;65526;48.578;-4.520;2024-01-10T13:31:18;24.13;;;12.07;;
76631;SDS011;65526;48.578;-4.520;2024-01-10T13:33:44;24.13;;;11.27;;
76631;SDS011;65526;48.578;-4.520;2024-01-10T13:36:11;24.13;;;11.65;;
76631;SDS011;65526;48.578;-4.520;2024-01-10T13:38:37;26.08;;;13.00;;
76631;SDS011;65526;48.578;-4.520;2024-01-10T13:41:03;29.50;;;13.43;;
76631;SDS011;65526;48.578;-4.520;2024-01-10T13:43:31;27.17;;;12.55;;
76631;SDS011;65526;48.578;-4.520;2024-01-10T13:45:57;24.40;;;12.40;;
76631;SDS011;65526;48.578;-4.520;2024-01-10T13:48:24;28.88;;;12.35;;
76631;SDS011;65526;48.578;-4.520;2024-01-10T13:50:50;23.15;;;11.85;;
76631;SDS011;65526;48.578;-4.520;2024-01-10T13:53:16;25.10;;;11.82;;
76631;SDS011;65526;48.578;-4.520;2024-01-10T13:55:43;25.77;;;12.60;;
76631;SDS011;65526;48.578;-4.520;2024-01-10T13:58:09;25.65;;;11.88;;
76631;SDS011;65526;48.578;-4.520;2024-01-10T14:00:36;25.20;;;12.10;;
76631;SDS011;65526;48.578;-4.520;2024-01-10T14:03:04;23.27;;;11.43;;
76631;SDS011;65526;48.578;-4.520;2024-01-10T14:05:30;28.00;;;11.63;;
76631;SDS011;65526;48.578;-4.520;2024-01-10T14:07:56;27.00;;;12.15;;
76631;SDS011;65526;48.578;-4.520;2024-01-10T14:10:23;23.85;;;11.88;;
76631;SDS011;65526;48.578;-4.520;2024-01-10T14:12:49;25.70;;;12.10;;
76631;SDS011;65526;48.578;-4.520;2024-01-10T14:15:16;28.45;;;13.25;;
76631;SDS011;65526;48.578;-4.520;2024-01-10T14:17:42;25.95;;;12.48;;
76631;SDS011;65526;48.578;-4.520;2024-01-10T14:20:09;24.73;;;12.48;;
76631;SDS011;65526;48.578;-4.520;2024-01-10T14:22:36;25.70;;;12.35;;
76631;SDS011;65526;48.578;-4.520;2024-01-10T14:25:03;22.08;;;11.77;;
76631;SDS011;65526;48.578;-4.520;2024-01-10T14:27:31;25.15;;;11.75;;
76631;SDS011;65526;48.578;-4.520;2024-01-10T14:29:57;28.05;;;14.00;;
76631;SDS011;65526;48.578;-4.520;2024-01-10T14:32:25;26.02;;;13.02;;
76631;SDS011;65526;48.578;-4.520;2024-01-10T14:34:51;27.40;;;12.27;;
76631;SDS011;65526;48.578;-4.520;2024-01-10T14:37:18;26.75;;;12.30;;
76631;SDS011;65526;48.578;-4.520;2024-01-10T14:39:44;24.67;;;12.25;;